Time;durP1;ratioP1;P1;durP2;ratioP2;P2;SDS_P1;SDS_P2;PMS_P1;PMS_P2;Temp;Humidity;BMP_temperature;BMP_pressure;BME280_temperature;BME280_humidity;BME280_pressure;Samples;Min_cycle;Max_cycle;Signal;HPM_P1;HPM_P2
2022/09/20 00:00:44;;;;;;;4.35;3.97;;;;;;;;;;5020302;28;20128;-77
2022/09/20 00:03:11;;;;;;;7.13;4.72;;;;;;;;;;5005991;28;20442;-77
2022/09/20 00:05:39;;;;;;;6.03;4.32;;;;;;;;;;5023991;28;20045;-78
2022/09/20 00:08:08;;;;;;;7.40;4.25;;;;;;;;;;5025314;28;20541;-78
2022/09/20 00:10:38;;;;;;;4.18;3.78;;;;;;;;;;5005859;28;20045;-78
2022/09/20 00:13:06;;;;;;;5.70;4.00;;;;;;;;;;5024883;28;20052;-78
2022/09/20 00:15:33;;;;;;;7.50;4.20;;;;;;;;;;5011998;28;20128;-78
2022/09/20 00:18:01;;;;;;;7.18;4.30;;;;;;;;;;5026477;28;20057;-78
2022/09/20 00:20:28;;;;;;;5.20;4.30;;;;;;;;;;5009026;28;20041;-78
2022/09/20 00:22:55;;;;;;;5.10;3.20;;;;;;;;;;5023841;28;20038;-78
2022/09/20 00:25:22;;;;;;;4.43;2.75;;;;;;;;;;4996527;28;20131;-78
2022/09/20 00:27:50;;;;;;;5.35;4.07;;;;;;;;;;5025997;28;20414;-78
2022/09/20 00:30:17;;;;;;;5.30;3.85;;;;;;;;;;5020946;28;20076;-78
2022/09/20 00:32:44;;;;;;;5.22;3.45;;;;;;;;;;5020461;28;20053;-78
2022/09/20 00:35:11;;;;;;;3.95;3.53;;;;;;;;;;5009672;28;20489;-77
2022/09/20 00:37:40;;;;;;;6.60;3.88;;;;;;;;;;5012166;28;20061;-78
2022/09/20 00:40:09;;;;;;;4.80;2.90;;;;;;;;;;5002644;28;20511;-78
2022/09/20 00:42:37;;;;;;;2.67;2.47;;;;;;;;;;5009320;28;20046;-77
2022/09/20 00:45:16;;;;;;;5.43;3.33;;;;;;;;;;5015668;28;20470;-77
2022/09/20 00:47:46;;;;;;;4.40;3.10;;;;;;;;;;5009355;28;20050;-78
2022/09/20 00:50:29;;;;;;;2.88;2.40;;;;;;;;;;5019793;28;20541;-78
2022/09/20 00:53:03;;;;;;;5.45;3.17;;;;;;;;;;5023036;28;20107;-78
2022/09/20 00:55:30;;;;;;;4.00;3.00;;;;;;;;;;5021134;28;20045;-78
2022/09/20 00:57:58;;;;;;;3.47;2.65;;;;;;;;;;5028876;28;20128;-78
2022/09/20 01:00:26;;;;;;;6.65;3.63;;;;;;;;;;5012121;28;20068;-78
2022/09/20 01:02:56;;;;;;;3.72;3.30;;;;;;;;;;5028883;28;20041;-78
2022/09/20 01:05:24;;;;;;;5.95;3.90;;;;;;;;;;5027435;28;20544;-78
2022/09/20 01:07:52;;;;;;;4.82;3.55;;;;;;;;;;5012016;28;20133;-78
2022/09/20 01:10:19;;;;;;;7.97;3.33;;;;;;;;;;5025576;28;20045;-78
2022/09/20 01:12:47;;;;;;;4.85;3.17;;;;;;;;;;5032226;28;20423;-78
2022/09/20 01:15:14;;;;;;;3.72;3.25;;;;;;;;;;5031518;28;20052;-78
2022/09/20 01:17:44;;;;;;;4.15;2.92;;;;;;;;;;5022910;28;20069;-78
2022/09/20 01:20:17;;;;;;;3.63;2.53;;;;;;;;;;5008547;28;20052;-78
2022/09/20 01:23:02;;;;;;;5.80;3.75;;;;;;;;;;5016343;28;20041;-78
2022/09/20 01:25:46;;;;;;;4.38;3.70;;;;;;;;;;5028499;28;20038;-79
2022/09/20 01:28:14;;;;;;;3.38;2.75;;;;;;;;;;5025072;28;20068;-79
2022/09/20 01:30:45;;;;;;;4.68;3.70;;;;;;;;;;5009387;28;20422;-78
2022/09/20 01:33:32;;;;;;;6.68;4.13;;;;;;;;;;5029702;28;20041;-78
2022/09/20 01:36:02;;;;;;;10.32;4.50;;;;;;;;;;4995623;28;20037;-79
2022/09/20 01:39:01;;;;;;;6.07;4.63;;;;;;;;;;5017765;28;20061;-78
2022/09/20 01:41:44;;;;;;;7.50;4.40;;;;;;;;;;4991873;28;20044;-78
2022/09/20 01:44:20;;;;;;;8.23;5.07;;;;;;;;;;5019436;28;20049;-78
2022/09/20 01:46:50;;;;;;;3.67;3.20;;;;;;;;;;5028485;28;20050;-79
2022/09/20 01:49:24;;;;;;;7.68;5.18;;;;;;;;;;5019161;28;20134;-79
2022/09/20 01:52:10;;;;;;;6.07;4.10;;;;;;;;;;5013949;28;20060;-79
2022/09/20 01:54:57;;;;;;;10.95;5.35;;;;;;;;;;5024709;28;20037;-79
2022/09/20 01:57:33;;;;;;;9.38;5.80;;;;;;;;;;5013895;28;20096;-79
2022/09/20 02:00:03;;;;;;;9.40;5.82;;;;;;;;;;5033798;28;20069;-79
2022/09/20 02:02:49;;;;;;;10.40;6.13;;;;;;;;;;5025238;28;20042;-79
2022/09/20 02:05:42;;;;;;;7.75;4.50;;;;;;;;;;5027538;28;20092;-78
2022/09/20 02:08:19;;;;;;;10.98;5.68;;;;;;;;;;5027217;28;20049;-79
2022/09/20 02:10:49;;;;;;;9.55;5.35;;;;;;;;;;5020651;23;20040;-74
2022/09/20 02:13:30;;;;;;;10.95;6.00;;;;;;;;;;5005395;28;20052;-74
2022/09/20 02:16:10;;;;;;;9.43;5.27;;;;;;;;;;5024016;28;20045;-74
2022/09/20 02:18:44;;;;;;;7.03;5.70;;;;;;;;;;5027197;28;20056;-74
2022/09/20 02:21:24;;;;;;;9.38;5.68;;;;;;;;;;4988483;28;20389;-74
2022/09/20 02:23:51;;;;;;;8.73;5.20;;;;;;;;;;5025725;28;20052;-74
2022/09/20 02:26:36;;;;;;;11.55;5.95;;;;;;;;;;5025577;28;20072;-74
2022/09/20 02:29:16;;;;;;;7.85;5.30;;;;;;;;;;5028349;28;20041;-74
2022/09/20 02:32:02;;;;;;;14.90;6.55;;;;;;;;;;4992407;28;20054;-74
2022/09/20 02:34:29;;;;;;;11.48;5.88;;;;;;;;;;5019100;28;20132;-73
2022/09/20 02:37:09;;;;;;;11.05;5.40;;;;;;;;;;5013606;28;20087;-74
2022/09/20 02:39:42;;;;;;;10.95;5.90;;;;;;;;;;5023063;28;20042;-74
2022/09/20 02:42:13;;;;;;;9.60;5.78;;;;;;;;;;5007967;28;20042;-74
2022/09/20 02:44:41;;;;;;;11.35;5.80;;;;;;;;;;5018583;28;20398;-73
2022/09/20 02:47:20;;;;;;;7.85;5.10;;;;;;;;;;5019555;28;20056;-73
2022/09/20 02:50:17;;;;;;;12.32;6.13;;;;;;;;;;5027134;28;20408;-73
2022/09/20 02:52:49;;;;;;;10.63;5.10;;;;;;;;;;4979836;28;20126;-74
2022/09/20 02:55:16;;;;;;;;;;;;;;;;;;5021734;28;20045;-74
2022/09/20 02:57:51;;;;;;;11.10;5.55;;;;;;;;;;5015393;28;20411;-73
2022/09/20 03:00:24;;;;;;;4.28;2.20;;;;;;;;;;5005035;28;20052;-74
2022/09/20 03:03:00;;;;;;;4.00;2.67;;;;;;;;;;4994427;28;20057;-74
2022/09/20 03:05:27;;;;;;;11.00;4.40;;;;;;;;;;5022363;28;20648;-74
2022/09/20 03:08:03;;;;;;;6.00;4.10;;;;;;;;;;4977080;28;20092;-73
2022/09/20 03:10:31;;;;;;;6.28;4.53;;;;;;;;;;5002553;28;20148;-74
2022/09/20 03:13:10;;;;;;;6.50;3.70;;;;;;;;;;5014513;28;20475;-74
2022/09/20 03:15:46;;;;;;;4.07;2.42;;;;;;;;;;5017007;28;20075;-75
2022/09/20 03:18:16;;;;;;;2.38;2.17;;;;;;;;;;5021000;28;20029;-74
2022/09/20 03:20:47;;;;;;;4.45;2.33;;;;;;;;;;4990101;28;20052;-74
2022/09/20 03:23:30;;;;;;;4.22;2.33;;;;;;;;;;5027011;28;20042;-74
2022/09/20 03:25:58;;;;;;;6.70;3.33;;;;;;;;;;5006515;28;20041;-74
2022/09/20 03:28:43;;;;;;;5.13;3.25;;;;;;;;;;5008062;28;20049;-74
2022/09/20 03:31:16;;;;;;;5.75;3.67;;;;;;;;;;5016149;28;20148;-74
2022/09/20 03:33:47;;;;;;;5.72;3.28;;;;;;;;;;5017693;28;20042;-74
2022/09/20 03:36:50;;;;;;;3.55;2.10;;;;;;;;;;4988390;28;20060;-74
2022/09/20 03:39:26;;;;;;;3.97;3.00;;;;;;;;;;4942439;28;20502;-75
2022/09/20 03:41:54;;;;;;;4.47;2.47;;;;;;;;;;5011818;28;20060;-75
2022/09/20 03:44:24;;;;;;;6.72;3.47;;;;;;;;;;5024947;28;20053;-73
2022/09/20 03:47:01;;;;;;;4.15;2.92;;;;;;;;;;5008692;28;20516;-75
2022/09/20 03:49:39;;;;;;;4.15;3.45;;;;;;;;;;5023112;28;20049;-75
2022/09/20 03:52:25;;;;;;;4.80;3.50;;;;;;;;;;5028123;28;20059;-75
2022/09/20 03:54:52;;;;;;;3.00;2.38;;;;;;;;;;5027404;28;20104;-76
2022/09/20 03:57:33;;;;;;;5.70;3.58;;;;;;;;;;5021544;28;20046;-75
2022/09/20 04:00:04;;;;;;;8.48;4.80;;;;;;;;;;5001689;28;20049;-73
2022/09/20 04:02:56;;;;;;;8.50;4.72;;;;;;;;;;4998983;28;20042;-73
2022/09/20 04:05:31;;;;;;;9.93;5.30;;;;;;;;;;5019140;28;20053;-74
2022/09/20 04:07:59;;;;;;;7.20;4.88;;;;;;;;;;5005968;28;20048;-76
2022/09/20 04:10:35;;;;;;;5.72;3.42;;;;;;;;;;5023706;28;20046;-74
2022/09/20 04:13:20;;;;;;;4.75;4.20;;;;;;;;;;5007311;28;20124;-74
2022/09/20 04:15:47;;;;;;;6.85;4.78;;;;;;;;;;5021912;28;20256;-74
2022/09/20 04:18:28;;;;;;;8.50;4.50;;;;;;;;;;4994450;28;20124;-73
2022/09/20 04:21:08;;;;;;;12.63;5.57;;;;;;;;;;5013155;28;20049;-73
2022/09/20 04:23:50;;;;;;;9.32;5.40;;;;;;;;;;5007801;28;20045;-74
2022/09/20 04:26:21;;;;;;;6.22;5.00;;;;;;;;;;5000185;28;20073;-74
2022/09/20 04:28:54;;;;;;;8.15;4.93;;;;;;;;;;5010980;28;20069;-75
2022/09/20 04:31:30;;;;;;;8.10;4.03;;;;;;;;;;5043604;28;20394;-74
2022/09/20 04:33:59;;;;;;;6.28;4.68;;;;;;;;;;5042988;28;20041;-74
2022/09/20 04:36:37;;;;;;;7.78;4.50;;;;;;;;;;5030275;28;20055;-74
2022/09/20 04:39:15;;;;;;;5.70;4.13;;;;;;;;;;5023913;28;20069;-73
2022/09/20 04:41:57;;;;;;;10.32;4.75;;;;;;;;;;5022538;28;20605;-73
2022/09/20 04:44:26;;;;;;;6.15;3.38;;;;;;;;;;5022849;28;20521;-73
2022/09/20 04:47:30;;;;;;;6.97;4.13;;;;;;;;;;5014989;28;20228;-73
2022/09/20 04:50:05;;;;;;;5.97;3.92;;;;;;;;;;4964211;28;20057;-74
2022/09/20 04:52:33;;;;;;;6.50;4.28;;;;;;;;;;5020102;28;20069;-74
2022/09/20 04:55:11;;;;;;;6.88;4.50;;;;;;;;;;5000980;28;20053;-73
2022/09/20 04:57:38;;;;;;;8.18;3.75;;;;;;;;;;5024640;28;20086;-73
2022/09/20 05:00:11;;;;;;;4.72;3.97;;;;;;;;;;5018778;28;20096;-74
2022/09/20 05:02:58;;;;;;;8.63;6.03;;;;;;;;;;5006480;28;20076;-73
2022/09/20 05:05:42;;;;;;;6.47;4.30;;;;;;;;;;5001469;28;20041;-73
2022/09/20 05:08:19;;;;;;;6.60;3.65;;;;;;;;;;5027541;28;20042;-74
2022/09/20 05:10:46;;;;;;;8.73;3.88;;;;;;;;;;5024021;28;20075;-74
2022/09/20 05:13:14;;;;;;;4.30;3.55;;;;;;;;;;5002074;28;20527;-74
2022/09/20 05:15:57;;;;;;;5.25;2.95;;;;;;;;;;4990276;28;20061;-73
2022/09/20 05:18:43;;;;;;;4.65;2.80;;;;;;;;;;5023765;28;20061;-73
2022/09/20 05:21:19;;;;;;;7.95;3.72;;;;;;;;;;5001247;28;20033;-72
2022/09/20 05:23:46;;;;;;;5.05;2.42;;;;;;;;;;5006086;28;20041;-74
2022/09/20 05:26:37;;;;;;;6.25;2.95;;;;;;;;;;4978302;28;20050;-74
2022/09/20 05:29:19;;;;;;;3.28;2.58;;;;;;;;;;5001679;28;20064;-71
2022/09/20 05:31:52;;;;;;;3.10;2.47;;;;;;;;;;5001412;28;20064;-73
2022/09/20 05:34:27;;;;;;;3.40;2.95;;;;;;;;;;4997009;28;20145;-73
2022/09/20 05:37:14;;;;;;;7.00;3.67;;;;;;;;;;4992151;28;20177;-73
2022/09/20 05:40:00;;;;;;;5.70;4.60;;;;;;;;;;5025697;28;20250;-72
2022/09/20 05:42:39;;;;;;;7.95;5.20;;;;;;;;;;4991474;28;20103;-72
2022/09/20 05:45:17;;;;;;;3.72;2.95;;;;;;;;;;5025715;28;20045;-73
2022/09/20 05:47:54;;;;;;;5.70;4.30;;;;;;;;;;5020240;28;20049;-72
2022/09/20 05:50:28;;;;;;;6.55;4.80;;;;;;;;;;5028613;28;20065;-72
2022/09/20 05:53:00;;;;;;;7.15;4.60;;;;;;;;;;4995168;28;20118;-72
2022/09/20 05:55:46;;;;;;;5.60;3.95;;;;;;;;;;4986041;28;20049;-72
2022/09/20 05:58:20;;;;;;;6.90;3.95;;;;;;;;;;5017356;28;20132;-72
2022/09/20 06:00:51;;;;;;;7.13;3.88;;;;;;;;;;5027893;28;20519;-72
2022/09/20 06:03:38;;;;;;;9.25;4.03;;;;;;;;;;5028146;28;20459;-72
2022/09/20 06:06:22;;;;;;;2.97;2.78;;;;;;;;;;5023943;28;20065;-72
2022/09/20 06:08:56;;;;;;;4.15;3.13;;;;;;;;;;5006292;28;20483;-72
2022/09/20 06:11:27;;;;;;;7.70;4.07;;;;;;;;;;5020812;28;20128;-71
2022/09/20 06:14:09;;;;;;;5.43;3.90;;;;;;;;;;5022054;28;20140;-70
2022/09/20 06:16:38;;;;;;;;;;;;;;;;;;5004513;28;20519;-72
2022/09/20 06:19:18;;;;;;;8.95;4.10;;;;;;;;;;5004155;28;19929;-72
2022/09/20 06:21:55;;;;;;;4.68;4.00;;;;;;;;;;5023961;28;20528;-72
2022/09/20 06:24:33;;;;;;;6.55;4.00;;;;;;;;;;5017437;28;20520;-71
2022/09/20 06:27:03;;;;;;;4.10;3.70;;;;;;;;;;5021787;28;20576;-72
2022/09/20 06:29:33;;;;;;;6.00;4.00;;;;;;;;;;5007307;28;20100;-72
2022/09/20 06:32:00;;;;;;;10.13;4.38;;;;;;;;;;4990177;28;20049;-72
2022/09/20 06:34:28;;;;;;;7.97;4.93;;;;;;;;;;5000022;28;20296;-74
2022/09/20 06:42:48;;;;;;;8.63;3.30;;;;;;;;;;5011658;28;20045;-76
2022/09/20 06:45:15;;;;;;;9.98;3.10;;;;;;;;;;4995221;28;20516;-77
2022/09/20 06:47:43;;;;;;;11.57;5.43;;;;;;;;;;4992635;28;20058;-77
2022/09/20 06:50:17;;;;;;;7.18;4.22;;;;;;;;;;4996871;28;21027;-74
2022/09/20 06:52:46;;;;;;;9.55;5.72;;;;;;;;;;5023461;28;20034;-77
2022/09/20 06:55:20;;;;;;;6.03;4.00;;;;;;;;;;4982390;28;20037;-77
2022/09/20 06:57:52;;;;;;;8.73;4.50;;;;;;;;;;5002387;28;20046;-77
2022/09/20 07:00:19;;;;;;;5.20;3.22;;;;;;;;;;4996827;28;20555;-77
2022/09/20 07:02:47;;;;;;;3.95;3.38;;;;;;;;;;5017165;28;20076;-76
2022/09/20 07:05:16;;;;;;;11.05;4.85;;;;;;;;;;5017871;28;20570;-77
2022/09/20 07:07:43;;;;;;;6.70;3.67;;;;;;;;;;5015567;28;20709;-77
2022/09/20 07:10:11;;;;;;;6.70;3.47;;;;;;;;;;5010816;28;20053;-75
2022/09/20 07:12:38;;;;;;;10.40;4.75;;;;;;;;;;4994791;28;20046;-77
2022/09/20 07:15:06;;;;;;;7.75;4.63;;;;;;;;;;5013385;28;20053;-77
2022/09/20 07:17:33;;;;;;;8.93;8.02;;;;;;;;;;4998510;28;20049;-77
2022/09/20 07:20:01;;;;;;;10.73;8.43;;;;;;;;;;5015753;28;20048;-78
2022/09/20 07:22:28;;;;;;;5.82;4.45;;;;;;;;;;5013153;28;20049;-77
2022/09/20 07:24:57;;;;;;;5.65;3.30;;;;;;;;;;5020948;28;20115;-77
2022/09/20 07:27:26;;;;;;;3.22;2.42;;;;;;;;;;4986998;28;20052;-78
2022/09/20 07:29:55;;;;;;;6.97;6.00;;;;;;;;;;5017983;28;20049;-74
2022/09/20 07:32:23;;;;;;;7.45;5.88;;;;;;;;;;5013548;28;20072;-77
2022/09/20 07:34:50;;;;;;;4.35;3.88;;;;;;;;;;4997560;28;20049;-78
2022/09/20 07:37:18;;;;;;;2.80;2.60;;;;;;;;;;5011601;28;20052;-78
2022/09/20 07:39:45;;;;;;;3.92;2.13;;;;;;;;;;5009907;28;20033;-77
2022/09/20 07:42:13;;;;;;;3.83;2.72;;;;;;;;;;5014026;28;20470;-77
2022/09/20 07:44:42;;;;;;;4.22;2.55;;;;;;;;;;4997334;28;20041;-76
2022/09/20 07:47:10;;;;;;;6.63;2.88;;;;;;;;;;5006054;28;20465;-78
2022/09/20 07:49:37;;;;;;;2.13;1.92;;;;;;;;;;5000564;28;20124;-77
2022/09/20 07:52:05;;;;;;;6.22;3.10;;;;;;;;;;5002448;28;20045;-77
2022/09/20 07:54:32;;;;;;;8.23;2.85;;;;;;;;;;4983579;28;20053;-77
2022/09/20 07:57:00;;;;;;;4.38;2.35;;;;;;;;;;4975410;28;20049;-76
2022/09/20 07:59:28;;;;;;;4.20;2.95;;;;;;;;;;4961595;28;20065;-76
2022/09/20 08:01:57;;;;;;;5.20;2.90;;;;;;;;;;4998542;28;20053;-75
2022/09/20 08:04:25;;;;;;;3.92;2.25;;;;;;;;;;5017012;28;20044;-75
2022/09/20 08:06:52;;;;;;;3.15;2.00;;;;;;;;;;5002917;28;20034;-75
2022/09/20 08:09:19;;;;;;;4.20;2.72;;;;;;;;;;5016787;28;20520;-74
2022/09/20 08:11:48;;;;;;;3.40;2.00;;;;;;;;;;5017620;28;20080;-74
2022/09/20 08:14:17;;;;;;;3.70;2.13;;;;;;;;;;5014988;28;20038;-74
2022/09/20 08:16:46;;;;;;;7.72;2.90;;;;;;;;;;5012736;28;20045;-75
2022/09/20 08:19:18;;;;;;;6.85;3.40;;;;;;;;;;4981642;28;20061;-74
2022/09/20 08:21:45;;;;;;;3.78;2.88;;;;;;;;;;4989632;28;20042;-73
2022/09/20 08:24:15;;;;;;;5.20;4.05;;;;;;;;;;4986521;28;20428;-74
2022/09/20 08:26:42;;;;;;;4.68;2.70;;;;;;;;;;5001365;28;20045;-74
2022/09/20 08:29:10;;;;;;;5.93;2.35;;;;;;;;;;5003090;28;20042;-73
2022/09/20 08:31:41;;;;;;;2.38;1.80;;;;;;;;;;5021866;28;20413;-72
2022/09/20 08:34:10;;;;;;;4.28;1.88;;;;;;;;;;5007406;28;20367;-73
2022/09/20 08:36:45;;;;;;;1.70;1.25;;;;;;;;;;4993626;28;20418;-71
2022/09/20 08:39:13;;;;;;;17.30;13.32;;;;;;;;;;5012846;28;20492;-72
2022/09/20 08:42:11;;;;;;;3.55;2.00;;;;;;;;;;4983810;28;20441;-72
2022/09/20 08:44:45;;;;;;;6.13;1.95;;;;;;;;;;5003601;28;20041;-72
2022/09/20 08:47:15;;;;;;;4.20;1.73;;;;;;;;;;5052313;23;20055;-69
2022/09/20 08:49:43;;;;;;;5.60;2.10;;;;;;;;;;5045427;28;20078;-69
2022/09/20 08:52:19;;;;;;;2.78;1.85;;;;;;;;;;5084303;28;20048;-69
2022/09/20 08:54:46;;;;;;;7.82;2.60;;;;;;;;;;5079949;28;20442;-69
2022/09/20 08:57:17;;;;;;;4.38;2.30;;;;;;;;;;5081294;28;20495;-68
2022/09/20 08:59:45;;;;;;;3.25;2.00;;;;;;;;;;5060827;28;20403;-68
2022/09/20 09:02:20;;;;;;;3.38;1.75;;;;;;;;;;5079956;28;20109;-70
2022/09/20 09:04:52;;;;;;;6.95;2.97;;;;;;;;;;5037122;28;20087;-69
2022/09/20 09:07:21;;;;;;;4.38;2.00;;;;;;;;;;5075551;28;20044;-70
2022/09/20 09:09:51;;;;;;;4.10;1.88;;;;;;;;;;5070686;28;20392;-70
2022/09/20 09:12:26;;;;;;;4.13;1.50;;;;;;;;;;5074770;28;20534;-72
2022/09/20 09:14:58;;;;;;;2.95;1.73;;;;;;;;;;5055006;28;20044;-70
2022/09/20 09:17:25;;;;;;;;;;;;;;;;;;5069260;28;20047;-70
2022/09/20 09:19:55;;;;;;;2.70;1.98;;;;;;;;;;5081238;28;20173;-69
2022/09/20 09:22:36;;;;;;;3.92;1.80;;;;;;;;;;5081637;28;20045;-69
2022/09/20 09:25:08;;;;;;;2.50;1.58;;;;;;;;;;5052432;28;20039;-69
2022/09/20 09:27:49;;;;;;;6.82;1.80;;;;;;;;;;5042416;28;20044;-70
2022/09/20 09:30:21;;;;;;;4.13;1.50;;;;;;;;;;5063108;28;20036;-71
2022/09/20 09:32:49;;;;;;;5.28;1.70;;;;;;;;;;5084322;28;20040;-70
2022/09/20 09:35:23;;;;;;;3.20;1.52;;;;;;;;;;5073778;28;20071;-70
2022/09/20 09:37:55;;;;;;;4.47;1.27;;;;;;;;;;5081398;28;20457;-71
2022/09/20 09:40:23;;;;;;;3.78;1.30;;;;;;;;;;5083579;28;20055;-71
2022/09/20 09:42:52;;;;;;;1.90;1.20;;;;;;;;;;5068689;28;20045;-70
2022/09/20 09:45:29;;;;;;;5.47;1.35;;;;;;;;;;5083757;28;20455;-69
2022/09/20 09:47:58;;;;;;;3.83;1.60;;;;;;;;;;5086344;28;20127;-70
2022/09/20 09:50:30;;;;;;;7.00;1.50;;;;;;;;;;5085268;28;20044;-71
2022/09/20 09:52:59;;;;;;;7.68;1.48;;;;;;;;;;5065047;28;20052;-70
2022/09/20 09:55:37;;;;;;;3.30;1.52;;;;;;;;;;5065578;28;20040;-70
2022/09/20 09:58:25;;;;;;;3.53;1.15;;;;;;;;;;5088128;28;20051;-70
2022/09/20 10:00:53;;;;;;;1.83;1.08;;;;;;;;;;5054215;28;20056;-71
2022/09/20 10:03:36;;;;;;;3.58;1.33;;;;;;;;;;5067896;28;20035;-70
2022/09/20 10:06:17;;;;;;;4.20;1.25;;;;;;;;;;5059655;28;20047;-70
2022/09/20 10:08:58;;;;;;;3.78;1.05;;;;;;;;;;5065996;28;20037;-70
2022/09/20 10:11:36;;;;;;;2.72;1.45;;;;;;;;;;5078943;28;20044;-70
2022/09/20 10:14:04;;;;;;;2.47;1.35;;;;;;;;;;5075631;28;20073;-70
2022/09/20 10:16:48;;;;;;;2.63;1.15;;;;;;;;;;5069075;28;20059;-70
2022/09/20 10:19:27;;;;;;;4.72;1.40;;;;;;;;;;5071615;28;20129;-70
2022/09/20 10:22:00;;;;;;;2.20;1.40;;;;;;;;;;5069866;28;20044;-70
2022/09/20 10:24:46;;;;;;;2.58;1.20;;;;;;;;;;5079456;28;20051;-70
2022/09/20 10:27:26;;;;;;;1.27;0.82;;;;;;;;;;5076188;28;20044;-71
2022/09/20 10:30:12;;;;;;;1.58;0.90;;;;;;;;;;5076580;28;20047;-72
2022/09/20 10:32:51;;;;;;;1.58;0.95;;;;;;;;;;5077616;28;20463;-71
2022/09/20 10:35:18;;;;;;;1.67;1.00;;;;;;;;;;5066521;28;20048;-70
2022/09/20 10:37:54;;;;;;;2.72;1.20;;;;;;;;;;5081337;28;20865;-71
2022/09/20 10:43:13;;;;;;;3.35;1.20;;;;;;;;;;5067085;28;20039;-70
2022/09/20 10:43:21;;;;;;;2.90;0.90;;;;;;;;;;5083254;28;20036;-71
2022/09/20 10:45:51;;;;;;;2.75;1.00;;;;;;;;;;5080472;28;20110;-71
2022/09/20 10:48:50;;;;;;;2.22;0.77;;;;;;;;;;5075469;28;20036;-71
2022/09/20 10:51:26;;;;;;;1.10;0.80;;;;;;;;;;5067200;28;20178;-71
2022/09/20 10:54:06;;;;;;;1.48;0.90;;;;;;;;;;5062410;28;20063;-72
2022/09/20 10:56:40;;;;;;;2.60;1.00;;;;;;;;;;5078367;28;20592;-71
2022/09/20 10:59:25;;;;;;;2.03;0.90;;;;;;;;;;5034928;22;20054;-73
2022/09/20 11:01:53;;;;;;;3.22;1.05;;;;;;;;;;5003603;28;20065;-73
2022/09/20 11:04:33;;;;;;;2.97;1.20;;;;;;;;;;5003292;28;20040;-71
2022/09/20 11:07:01;;;;;;;5.70;3.03;;;;;;;;;;5001678;28;20041;-71
2022/09/20 11:09:33;;;;;;;3.65;1.20;;;;;;;;;;4969612;28;20486;-71
2022/09/20 11:15:04;;;;;;;1.45;1.13;;;;;;;;;;4949351;28;20465;-70
2022/09/20 11:17:45;;;;;;;3.95;1.20;;;;;;;;;;4950846;28;20048;-70
2022/09/20 11:20:35;;;;;;;5.70;1.20;;;;;;;;;;4963211;28;20783;-70
2022/09/20 11:23:13;;;;;;;3.72;1.20;;;;;;;;;;4956256;28;20113;-70
2022/09/20 11:25:51;;;;;;;2.25;1.40;;;;;;;;;;4954075;28;20510;-70
2022/09/20 11:28:21;;;;;;;2.10;1.13;;;;;;;;;;4951323;28;20035;-70
2022/09/20 11:31:01;;;;;;;3.42;1.00;;;;;;;;;;4956630;28;20415;-70
2022/09/20 11:33:31;;;;;;;2.88;1.20;;;;;;;;;;4956128;28;20430;-71
2022/09/20 11:36:01;;;;;;;3.47;1.23;;;;;;;;;;4954439;28;20549;-69
2022/09/20 11:38:31;;;;;;;1.92;1.23;;;;;;;;;;4954906;28;20509;-70
2022/09/20 11:41:02;;;;;;;2.65;1.10;;;;;;;;;;4968593;28;20403;-70
2022/09/20 11:43:31;;;;;;;1.88;1.70;;;;;;;;;;4962317;28;20047;-69
2022/09/20 11:46:00;;;;;;;5.13;1.95;;;;;;;;;;4959164;28;20039;-69
2022/09/20 11:48:31;;;;;;;1.95;1.00;;;;;;;;;;4960687;28;20035;-70
2022/09/20 11:51:07;;;;;;;3.20;0.90;;;;;;;;;;4954039;28;20066;-69
2022/09/20 11:53:54;;;;;;;2.20;0.95;;;;;;;;;;4961209;28;20047;-70
2022/09/20 11:56:33;;;;;;;2.22;1.00;;;;;;;;;;4947593;28;20463;-71
2022/09/20 11:59:02;;;;;;;1.58;0.80;;;;;;;;;;4954089;28;20043;-70
2022/09/20 12:01:33;;;;;;;2.00;1.00;;;;;;;;;;4961258;28;20043;-70
2022/09/20 12:04:21;;;;;;;5.93;1.25;;;;;;;;;;4967974;28;20066;-68
2022/09/20 12:07:04;;;;;;;3.55;1.30;;;;;;;;;;4966453;28;20439;-70
2022/09/20 12:09:39;;;;;;;1.90;0.52;;;;;;;;;;4958369;28;20062;-69
2022/09/20 12:12:25;;;;;;;2.25;0.90;;;;;;;;;;4960902;28;20752;-69
2022/09/20 12:14:58;;;;;;;2.75;0.90;;;;;;;;;;4955749;28;20402;-70
2022/09/20 12:17:43;;;;;;;1.35;0.75;;;;;;;;;;4955213;28;20143;-69
2022/09/20 12:20:51;;;;;;;3.00;0.90;;;;;;;;;;4953567;28;20771;-70
2022/09/20 12:23:40;;;;;;;2.63;0.80;;;;;;;;;;4941988;29;20051;-70
2022/09/20 12:26:22;;;;;;;2.38;0.50;;;;;;;;;;4941958;29;20661;-71
2022/09/20 12:28:49;;;;;;;1.73;0.77;;;;;;;;;;4963411;28;20050;-70
2022/09/20 12:31:24;;;;;;;0.90;0.90;;;;;;;;;;4962642;28;20046;-70
2022/09/20 12:33:55;;;;;;;0.50;0.50;;;;;;;;;;4959798;28;20506;-70
2022/09/20 12:36:23;;;;;;;1.23;1.00;;;;;;;;;;4961715;28;20051;-71
2022/09/20 12:38:54;;;;;;;5.60;0.60;;;;;;;;;;4956278;28;20063;-71
2022/09/20 12:41:22;;;;;;;3.28;1.10;;;;;;;;;;4953843;28;20052;-69
2022/09/20 12:44:03;;;;;;;2.85;0.80;;;;;;;;;;4964460;28;20121;-71
2022/09/20 12:46:32;;;;;;;2.78;0.47;;;;;;;;;;4977877;28;20055;-70
2022/09/20 12:52:49;;;;;;;0.47;0.47;;;;;;;;;;4956752;28;20043;-70
2022/09/20 12:55:05;;;;;;;0.57;0.50;;;;;;;;;;4953176;28;20377;-69
2022/09/20 12:57:38;;;;;;;1.08;0.95;;;;;;;;;;4958488;28;20093;-70
2022/09/20 13:00:07;;;;;;;0.98;0.52;;;;;;;;;;4946452;28;20055;-70
2022/09/20 13:02:41;;;;;;;1.33;0.50;;;;;;;;;;4960205;28;20039;-69
2022/09/20 13:05:28;;;;;;;1.67;1.58;;;;;;;;;;4952899;28;20065;-70
2022/09/20 13:07:59;;;;;;;0.85;0.70;;;;;;;;;;4967479;28;20045;-70
2022/09/20 13:10:29;;;;;;;1.10;1.00;;;;;;;;;;4965558;28;20475;-70
2022/09/20 13:13:19;;;;;;;2.58;0.80;;;;;;;;;;4950468;28;20545;-70
2022/09/20 13:15:49;;;;;;;1.58;1.10;;;;;;;;;;4960544;28;20422;-69
2022/09/20 13:18:17;;;;;;;0.88;0.88;;;;;;;;;;4958841;28;20035;-69
2022/09/20 13:20:45;;;;;;;0.75;0.70;;;;;;;;;;4961546;28;20050;-69
2022/09/20 13:23:19;;;;;;;1.75;0.98;;;;;;;;;;4964430;28;20173;-69
2022/09/20 13:25:46;;;;;;;0.80;0.65;;;;;;;;;;4965752;28;20387;-70
2022/09/20 13:28:33;;;;;;;1.02;0.50;;;;;;;;;;4960384;28;20047;-70
2022/09/20 13:31:35;;;;;;;0.90;0.90;;;;;;;;;;4963353;28;20051;-70
2022/09/20 13:34:13;;;;;;;0.75;0.75;;;;;;;;;;4919387;29;20048;-70
2022/09/20 13:36:40;;;;;;;3.13;1.00;;;;;;;;;;4950553;28;20059;-69
2022/09/20 13:39:08;;;;;;;0.50;0.50;;;;;;;;;;4940477;28;20101;-71
2022/09/20 13:41:36;;;;;;;2.03;0.60;;;;;;;;;;4961580;28;20042;-70
2022/09/20 13:44:04;;;;;;;0.57;0.50;;;;;;;;;;4967752;28;20390;-70
2022/09/20 13:46:32;;;;;;;1.70;0.60;;;;;;;;;;4967725;28;20515;-70
2022/09/20 13:49:08;;;;;;;0.65;0.60;;;;;;;;;;4959866;28;20051;-70
2022/09/20 13:51:35;;;;;;;0.30;0.30;;;;;;;;;;4965530;28;20050;-70
2022/09/20 13:54:21;;;;;;;0.32;0.32;;;;;;;;;;4966012;28;20050;-70
2022/09/20 13:56:50;;;;;;;1.25;0.80;;;;;;;;;;4967514;28;20046;-69
2022/09/20 13:59:18;;;;;;;0.20;0.20;;;;;;;;;;4961949;28;20070;-69
2022/09/20 14:01:53;;;;;;;0.73;0.50;;;;;;;;;;4960670;28;20422;-69
2022/09/20 14:04:22;;;;;;;0.80;0.20;;;;;;;;;;4956964;28;20039;-70
2022/09/20 14:06:54;;;;;;;0.22;0.22;;;;;;;;;;4965681;28;20034;-69
2022/09/20 14:09:25;;;;;;;2.72;0.50;;;;;;;;;;4962488;28;20034;-70
2022/09/20 14:11:53;;;;;;;;;;;;;;;;;;4959606;28;20050;-70
2022/09/20 14:14:20;;;;;;;0.65;0.50;;;;;;;;;;4965048;28;20394;-70
2022/09/20 14:16:49;;;;;;;1.27;0.73;;;;;;;;;;4959845;28;20046;-70
2022/09/20 14:19:17;;;;;;;2.28;0.60;;;;;;;;;;4955249;28;20053;-70
2022/09/20 14:21:45;;;;;;;0.68;0.40;;;;;;;;;;4970141;28;20039;-70
2022/09/20 14:24:12;;;;;;;0.70;0.70;;;;;;;;;;4960117;28;20047;-70
2022/09/20 14:26:41;;;;;;;1.90;1.40;;;;;;;;;;4959592;28;20043;-71
2022/09/20 14:29:28;;;;;;;1.13;0.60;;;;;;;;;;4942882;28;20110;-69
2022/09/20 14:31:57;;;;;;;1.65;0.50;;;;;;;;;;4981589;28;20489;-70
2022/09/20 14:34:24;;;;;;;0.57;0.50;;;;;;;;;;4968107;28;20043;-70
2022/09/20 14:37:02;;;;;;;0.50;0.50;;;;;;;;;;4948309;29;20055;-70
2022/09/20 14:39:29;;;;;;;0.60;0.45;;;;;;;;;;4938205;28;20143;-69
2022/09/20 14:41:56;;;;;;;0.60;0.60;;;;;;;;;;4957217;28;20035;-70
2022/09/20 14:44:24;;;;;;;1.02;0.68;;;;;;;;;;4956890;28;20050;-70
2022/09/20 14:46:53;;;;;;;1.08;0.90;;;;;;;;;;4957781;28;20051;-70
2022/09/20 14:49:20;;;;;;;0.63;0.40;;;;;;;;;;4966000;28;20042;-69
2022/09/20 14:51:48;;;;;;;0.85;0.50;;;;;;;;;;4959441;28;20282;-70
2022/09/20 14:54:28;;;;;;;1.00;0.60;;;;;;;;;;4959267;28;20070;-70
2022/09/20 14:56:57;;;;;;;0.70;0.52;;;;;;;;;;4967283;28;20046;-70
2022/09/20 14:59:25;;;;;;;0.93;0.60;;;;;;;;;;4945258;28;20098;-71
2022/09/20 15:02:04;;;;;;;0.98;0.70;;;;;;;;;;4945442;28;20047;-69
2022/09/20 15:04:34;;;;;;;1.05;0.90;;;;;;;;;;4946409;28;20046;-70
2022/09/20 15:07:03;;;;;;;1.95;0.60;;;;;;;;;;4946637;28;20051;-70
2022/09/20 15:09:30;;;;;;;1.35;0.90;;;;;;;;;;4947183;28;20071;-70
2022/09/20 15:12:11;;;;;;;1.40;1.10;;;;;;;;;;4949029;29;20106;-70
2022/09/20 15:14:41;;;;;;;1.30;1.20;;;;;;;;;;4946859;29;20525;-70
2022/09/20 15:17:21;;;;;;;1.95;1.85;;;;;;;;;;4946885;28;20047;-70
2022/09/20 15:19:49;;;;;;;2.55;1.60;;;;;;;;;;4948685;29;20102;-70
2022/09/20 15:22:16;;;;;;;1.20;1.10;;;;;;;;;;4947915;29;20047;-69
2022/09/20 15:24:43;;;;;;;1.20;1.10;;;;;;;;;;4947624;28;20051;-70
2022/09/20 15:27:11;;;;;;;1.30;1.23;;;;;;;;;;4951138;28;20055;-70
2022/09/20 15:29:39;;;;;;;1.58;1.00;;;;;;;;;;4947354;28;20047;-71
2022/09/20 15:32:09;;;;;;;2.85;1.70;;;;;;;;;;4963797;28;20066;-69
2022/09/20 15:34:36;;;;;;;1.67;0.73;;;;;;;;;;4967115;28;20053;-70